sensor_id;sensor_type;location;lat;lon;timestamp;P1;durP1;ratioP1;P2;durP2;ratioP2
27491;SDS011;14927;51.210;6.838;2023-04-03T00:00:19;5.90;;;3.67;;
27491;SDS011;14927;51.210;6.838;2023-04-03T00:03:04;8.00;;;3.97;;
27491;SDS011;14927;51.210;6.838;2023-04-03T00:05:48;8.30;;;3.90;;
27491;SDS011;14927;51.210;6.838;2023-04-03T00:08:33;6.50;;;4.07;;
27491;SDS011;14927;51.210;6.838;2023-04-03T00:11:19;6.97;;;3.63;;
27491;SDS011;14927;51.210;6.838;2023-04-03T00:14:04;8.32;;;4.25;;
27491;SDS011;14927;51.210;6.838;2023-04-03T00:16:48;7.32;;;4.35;;
27491;SDS011;14927;51.210;6.838;2023-04-03T00:19:33;5.68;;;3.45;;
27491;SDS011;14927;51.210;6.838;2023-04-03T00:22:19;6.15;;;3.70;;
27491;SDS011;14927;51.210;6.838;2023-04-03T00:25:04;7.18;;;3.90;;
27491;SDS011;14927;51.210;6.838;2023-04-03T00:27:49;7.80;;;3.83;;
27491;SDS011;14927;51.210;6.838;2023-04-03T00:30:33;6.85;;;3.67;;
27491;SDS011;14927;51.210;6.838;2023-04-03T00:33:19;6.55;;;3.67;;
27491;SDS011;14927;51.210;6.838;2023-04-03T00:36:08;8.63;;;4.03;;
27491;SDS011;14927;51.210;6.838;2023-04-03T00:38:54;6.75;;;3.92;;
27491;SDS011;14927;51.210;6.838;2023-04-03T00:41:39;5.45;;;3.80;;
27491;SDS011;14927;51.210;6.838;2023-04-03T00:47:18;7.70;;;4.18;;
27491;SDS011;14927;51.210;6.838;2023-04-03T00:50:03;5.30;;;3.70;;
27491;SDS011;14927;51.210;6.838;2023-04-03T00:52:49;6.07;;;3.50;;
27491;SDS011;14927;51.210;6.838;2023-04-03T00:55:34;7.85;;;4.28;;
27491;SDS011;14927;51.210;6.838;2023-04-03T00:58:20;7.57;;;3.67;;
27491;SDS011;14927;51.210;6.838;2023-04-03T01:01:13;7.25;;;3.58;;
27491;SDS011;14927;51.210;6.838;2023-04-03T01:04:02;6.22;;;4.00;;
27491;SDS011;14927;51.210;6.838;2023-04-03T01:06:50;6.82;;;4.00;;
27491;SDS011;14927;51.210;6.838;2023-04-03T01:09:35;5.20;;;3.67;;
27491;SDS011;14927;51.210;6.838;2023-04-03T01:12:22;6.93;;;4.40;;
27491;SDS011;14927;51.210;6.838;2023-04-03T01:15:14;6.63;;;3.80;;
27491;SDS011;14927;51.210;6.838;2023-04-03T01:18:08;6.38;;;4.00;;
27491;SDS011;14927;51.210;6.838;2023-04-03T01:23:43;6.43;;;4.13;;
27491;SDS011;14927;51.210;6.838;2023-04-03T01:26:37;6.97;;;4.15;;
27491;SDS011;14927;51.210;6.838;2023-04-03T01:29:22;5.63;;;4.00;;
27491;SDS011;14927;51.210;6.838;2023-04-03T01:32:07;9.45;;;4.10;;
27491;SDS011;14927;51.210;6.838;2023-04-03T01:34:52;10.57;;;4.68;;
27491;SDS011;14927;51.210;6.838;2023-04-03T01:37:37;6.70;;;4.40;;
27491;SDS011;14927;51.210;6.838;2023-04-03T01:40:21;6.13;;;4.22;;
27491;SDS011;14927;51.210;6.838;2023-04-03T01:43:06;10.15;;;4.65;;
27491;SDS011;14927;51.210;6.838;2023-04-03T01:45:50;6.63;;;3.83;;
27491;SDS011;14927;51.210;6.838;2023-04-03T01:48:36;7.05;;;4.20;;
27491;SDS011;14927;51.210;6.838;2023-04-03T01:51:21;9.95;;;4.57;;
27491;SDS011;14927;51.210;6.838;2023-04-03T01:54:06;6.10;;;4.18;;
27491;SDS011;14927;51.210;6.838;2023-04-03T01:56:51;9.52;;;3.97;;
27491;SDS011;14927;51.210;6.838;2023-04-03T01:59:36;5.85;;;3.70;;
27491;SDS011;14927;51.210;6.838;2023-04-03T02:02:20;8.32;;;3.70;;
27491;SDS011;14927;51.210;6.838;2023-04-03T02:05:05;5.30;;;3.45;;
27491;SDS011;14927;51.210;6.838;2023-04-03T02:07:50;5.20;;;2.78;;
27491;SDS011;14927;51.210;6.838;2023-04-03T02:10:35;10.18;;;3.33;;
27491;SDS011;14927;51.210;6.838;2023-04-03T02:13:20;4.95;;;3.25;;
27491;SDS011;14927;51.210;6.838;2023-04-03T02:16:06;6.28;;;3.47;;
27491;SDS011;14927;51.210;6.838;2023-04-03T02:18:53;5.57;;;3.33;;
27491;SDS011;14927;51.210;6.838;2023-04-03T02:21:38;8.52;;;3.42;;
27491;SDS011;14927;51.210;6.838;2023-04-03T02:24:23;5.72;;;3.17;;
27491;SDS011;14927;51.210;6.838;2023-04-03T02:27:08;7.50;;;3.53;;
27491;SDS011;14927;51.210;6.838;2023-04-03T02:29:53;5.68;;;3.58;;
27491;SDS011;14927;51.210;6.838;2023-04-03T02:32:38;7.55;;;3.60;;
27491;SDS011;14927;51.210;6.838;2023-04-03T02:35:24;6.25;;;3.30;;
27491;SDS011;14927;51.210;6.838;2023-04-03T02:38:08;6.13;;;3.25;;
27491;SDS011;14927;51.210;6.838;2023-04-03T02:40:53;6.72;;;3.42;;
27491;SDS011;14927;51.210;6.838;2023-04-03T02:43:47;7.22;;;3.28;;
27491;SDS011;14927;51.210;6.838;2023-04-03T02:46:31;9.77;;;3.90;;
27491;SDS011;14927;51.210;6.838;2023-04-03T02:49:16;6.25;;;3.58;;
27491;SDS011;14927;51.210;6.838;2023-04-03T02:52:01;4.88;;;3.17;;
27491;SDS011;14927;51.210;6.838;2023-04-03T02:54:46;5.47;;;2.83;;
27491;SDS011;14927;51.210;6.838;2023-04-03T02:57:30;6.80;;;3.25;;
27491;SDS011;14927;51.210;6.838;2023-04-03T03:00:15;8.52;;;3.25;;
27491;SDS011;14927;51.210;6.838;2023-04-03T03:03:00;6.78;;;3.50;;
27491;SDS011;14927;51.210;6.838;2023-04-03T03:05:44;9.27;;;3.15;;
27491;SDS011;14927;51.210;6.838;2023-04-03T03:08:29;7.50;;;3.55;;
27491;SDS011;14927;51.210;6.838;2023-04-03T03:11:14;6.80;;;3.22;;
27491;SDS011;14927;51.210;6.838;2023-04-03T03:13:59;6.70;;;3.25;;
27491;SDS011;14927;51.210;6.838;2023-04-03T03:16:44;6.15;;;3.28;;
27491;SDS011;14927;51.210;6.838;2023-04-03T03:19:29;5.97;;;3.38;;
27491;SDS011;14927;51.210;6.838;2023-04-03T03:22:14;5.32;;;3.13;;
27491;SDS011;14927;51.210;6.838;2023-04-03T03:24:58;7.47;;;3.38;;
27491;SDS011;14927;51.210;6.838;2023-04-03T03:27:43;8.60;;;3.28;;
27491;SDS011;14927;51.210;6.838;2023-04-03T03:30:28;8.02;;;3.47;;
27491;SDS011;14927;51.210;6.838;2023-04-03T03:33:12;7.00;;;3.50;;
27491;SDS011;14927;51.210;6.838;2023-04-03T03:35:57;6.35;;;3.28;;
27491;SDS011;14927;51.210;6.838;2023-04-03T03:38:42;5.95;;;3.17;;
27491;SDS011;14927;51.210;6.838;2023-04-03T03:41:27;8.05;;;3.38;;
27491;SDS011;14927;51.210;6.838;2023-04-03T03:44:11;8.10;;;3.63;;
27491;SDS011;14927;51.210;6.838;2023-04-03T03:46:56;6.78;;;2.78;;
27491;SDS011;14927;51.210;6.838;2023-04-03T03:49:41;8.45;;;3.70;;
27491;SDS011;14927;51.210;6.838;2023-04-03T03:52:25;6.85;;;3.40;;
27491;SDS011;14927;51.210;6.838;2023-04-03T03:55:10;7.47;;;3.50;;
27491;SDS011;14927;51.210;6.838;2023-04-03T03:57:55;8.10;;;3.60;;
27491;SDS011;14927;51.210;6.838;2023-04-03T04:00:39;6.95;;;3.50;;
27491;SDS011;14927;51.210;6.838;2023-04-03T04:03:24;5.68;;;3.40;;
27491;SDS011;14927;51.210;6.838;2023-04-03T04:06:08;6.80;;;3.13;;
27491;SDS011;14927;51.210;6.838;2023-04-03T04:08:53;6.82;;;3.35;;
27491;SDS011;14927;51.210;6.838;2023-04-03T04:11:38;6.22;;;3.13;;
27491;SDS011;14927;51.210;6.838;2023-04-03T04:14:24;7.43;;;3.08;;
27491;SDS011;14927;51.210;6.838;2023-04-03T04:17:09;5.25;;;3.20;;
27491;SDS011;14927;51.210;6.838;2023-04-03T04:19:54;7.55;;;3.28;;
27491;SDS011;14927;51.210;6.838;2023-04-03T04:22:39;10.80;;;3.03;;
27491;SDS011;14927;51.210;6.838;2023-04-03T04:25:23;7.90;;;3.67;;
27491;SDS011;14927;51.210;6.838;2023-04-03T04:28:09;7.30;;;3.08;;
27491;SDS011;14927;51.210;6.838;2023-04-03T04:30:53;5.80;;;2.67;;
27491;SDS011;14927;51.210;6.838;2023-04-03T04:33:38;8.77;;;3.17;;
27491;SDS011;14927;51.210;6.838;2023-04-03T04:36:23;6.40;;;2.67;;
27491;SDS011;14927;51.210;6.838;2023-04-03T04:39:08;4.32;;;2.20;;
27491;SDS011;14927;51.210;6.838;2023-04-03T04:41:53;5.20;;;2.67;;
27491;SDS011;14927;51.210;6.838;2023-04-03T04:44:37;6.15;;;2.85;;
27491;SDS011;14927;51.210;6.838;2023-04-03T04:47:23;9.02;;;3.33;;
27491;SDS011;14927;51.210;6.838;2023-04-03T04:50:08;8.15;;;2.85;;
27491;SDS011;14927;51.210;6.838;2023-04-03T04:52:53;5.72;;;2.55;;
27491;SDS011;14927;51.210;6.838;2023-04-03T04:55:38;5.13;;;2.70;;
27491;SDS011;14927;51.210;6.838;2023-04-03T04:58:22;6.50;;;2.72;;
27491;SDS011;14927;51.210;6.838;2023-04-03T05:01:08;9.55;;;2.78;;
27491;SDS011;14927;51.210;6.838;2023-04-03T05:03:54;5.85;;;2.33;;
27491;SDS011;14927;51.210;6.838;2023-04-03T05:06:39;5.65;;;2.60;;
27491;SDS011;14927;51.210;6.838;2023-04-03T05:09:23;4.00;;;2.33;;
27491;SDS011;14927;51.210;6.838;2023-04-03T05:12:09;6.55;;;3.15;;
27491;SDS011;14927;51.210;6.838;2023-04-03T05:14:53;10.57;;;2.97;;
27491;SDS011;14927;51.210;6.838;2023-04-03T05:17:38;6.20;;;2.65;;
27491;SDS011;14927;51.210;6.838;2023-04-03T05:20:23;7.68;;;2.72;;
27491;SDS011;14927;51.210;6.838;2023-04-03T05:23:09;4.93;;;2.78;;
27491;SDS011;14927;51.210;6.838;2023-04-03T05:25:55;5.63;;;2.28;;
27491;SDS011;14927;51.210;6.838;2023-04-03T05:28:39;6.22;;;2.40;;
27491;SDS011;14927;51.210;6.838;2023-04-03T05:31:25;8.65;;;2.70;;
27491;SDS011;14927;51.210;6.838;2023-04-03T05:34:13;6.18;;;2.50;;
27491;SDS011;14927;51.210;6.838;2023-04-03T05:36:58;6.15;;;2.92;;
27491;SDS011;14927;51.210;6.838;2023-04-03T05:39:43;8.60;;;2.60;;
27491;SDS011;14927;51.210;6.838;2023-04-03T05:42:28;5.57;;;2.42;;
27491;SDS011;14927;51.210;6.838;2023-04-03T05:45:13;6.38;;;2.88;;
27491;SDS011;14927;51.210;6.838;2023-04-03T05:47:58;7.07;;;2.53;;
27491;SDS011;14927;51.210;6.838;2023-04-03T05:50:43;7.07;;;2.70;;
27491;SDS011;14927;51.210;6.838;2023-04-03T05:53:28;7.90;;;2.53;;
27491;SDS011;14927;51.210;6.838;2023-04-03T05:56:15;9.43;;;2.90;;
27491;SDS011;14927;51.210;6.838;2023-04-03T05:59:01;6.28;;;2.33;;
27491;SDS011;14927;51.210;6.838;2023-04-03T06:01:45;7.38;;;2.28;;
27491;SDS011;14927;51.210;6.838;2023-04-03T06:04:30;8.25;;;3.42;;
27491;SDS011;14927;51.210;6.838;2023-04-03T06:07:20;5.47;;;2.38;;
27491;SDS011;14927;51.210;6.838;2023-04-03T06:10:11;6.47;;;2.15;;
27491;SDS011;14927;51.210;6.838;2023-04-03T06:12:56;4.45;;;2.25;;
27491;SDS011;14927;51.210;6.838;2023-04-03T06:15:41;6.35;;;2.63;;
27491;SDS011;14927;51.210;6.838;2023-04-03T06:18:26;7.25;;;3.15;;
27491;SDS011;14927;51.210;6.838;2023-04-03T06:21:11;9.98;;;2.63;;
27491;SDS011;14927;51.210;6.838;2023-04-03T06:23:56;13.65;;;2.97;;
27491;SDS011;14927;51.210;6.838;2023-04-03T06:26:41;9.18;;;3.05;;
27491;SDS011;14927;51.210;6.838;2023-04-03T06:29:27;7.18;;;2.50;;
27491;SDS011;14927;51.210;6.838;2023-04-03T06:32:11;7.97;;;2.35;;
27491;SDS011;14927;51.210;6.838;2023-04-03T06:34:57;5.85;;;2.35;;
27491;SDS011;14927;51.210;6.838;2023-04-03T06:37:42;6.43;;;2.28;;
27491;SDS011;14927;51.210;6.838;2023-04-03T06:40:27;7.55;;;2.35;;
27491;SDS011;14927;51.210;6.838;2023-04-03T06:43:12;6.97;;;2.47;;
27491;SDS011;14927;51.210;6.838;2023-04-03T06:45:57;7.18;;;2.10;;
27491;SDS011;14927;51.210;6.838;2023-04-03T06:48:41;8.13;;;2.30;;
27491;SDS011;14927;51.210;6.838;2023-04-03T06:51:28;7.03;;;2.00;;
27491;SDS011;14927;51.210;6.838;2023-04-03T06:54:14;7.50;;;2.38;;
27491;SDS011;14927;51.210;6.838;2023-04-03T06:56:59;7.97;;;2.50;;
27491;SDS011;14927;51.210;6.838;2023-04-03T06:59:43;7.53;;;2.65;;
27491;SDS011;14927;51.210;6.838;2023-04-03T07:02:28;8.15;;;2.30;;
27491;SDS011;14927;51.210;6.838;2023-04-03T07:05:12;6.63;;;2.45;;
27491;SDS011;14927;51.210;6.838;2023-04-03T07:07:57;3.95;;;2.17;;
27491;SDS011;14927;51.210;6.838;2023-04-03T07:10:42;6.72;;;2.05;;
27491;SDS011;14927;51.210;6.838;2023-04-03T07:13:28;5.20;;;2.05;;
27491;SDS011;14927;51.210;6.838;2023-04-03T07:16:12;11.57;;;2.70;;
27491;SDS011;14927;51.210;6.838;2023-04-03T07:18:58;6.18;;;2.30;;
27491;SDS011;14927;51.210;6.838;2023-04-03T07:21:42;7.50;;;2.30;;
27491;SDS011;14927;51.210;6.838;2023-04-03T07:24:27;5.38;;;2.35;;
27491;SDS011;14927;51.210;6.838;2023-04-03T07:27:11;5.65;;;1.58;;
27491;SDS011;14927;51.210;6.838;2023-04-03T07:29:56;6.90;;;2.38;;
27491;SDS011;14927;51.210;6.838;2023-04-03T07:32:41;6.57;;;2.03;;
27491;SDS011;14927;51.210;6.838;2023-04-03T07:35:26;7.05;;;1.67;;
27491;SDS011;14927;51.210;6.838;2023-04-03T07:38:11;11.20;;;2.30;;
27491;SDS011;14927;51.210;6.838;2023-04-03T07:40:56;6.72;;;2.00;;
27491;SDS011;14927;51.210;6.838;2023-04-03T07:43:41;6.40;;;1.52;;
27491;SDS011;14927;51.210;6.838;2023-04-03T07:46:26;9.70;;;1.92;;
27491;SDS011;14927;51.210;6.838;2023-04-03T07:49:10;9.00;;;2.00;;
27491;SDS011;14927;51.210;6.838;2023-04-03T07:51:55;8.48;;;2.17;;
27491;SDS011;14927;51.210;6.838;2023-04-03T07:54:40;4.22;;;1.45;;
27491;SDS011;14927;51.210;6.838;2023-04-03T07:57:25;6.07;;;1.48;;
27491;SDS011;14927;51.210;6.838;2023-04-03T08:00:10;7.85;;;1.63;;
27491;SDS011;14927;51.210;6.838;2023-04-03T08:02:56;5.43;;;1.88;;
27491;SDS011;14927;51.210;6.838;2023-04-03T08:05:42;6.50;;;1.90;;
27491;SDS011;14927;51.210;6.838;2023-04-03T08:08:29;6.90;;;2.03;;
27491;SDS011;14927;51.210;6.838;2023-04-03T08:11:15;6.15;;;1.67;;
27491;SDS011;14927;51.210;6.838;2023-04-03T08:13:59;4.95;;;1.95;;
27491;SDS011;14927;51.210;6.838;2023-04-03T08:16:46;3.80;;;1.73;;
27491;SDS011;14927;51.210;6.838;2023-04-03T08:19:32;4.93;;;1.48;;
27491;SDS011;14927;51.210;6.838;2023-04-03T08:22:17;5.65;;;1.75;;
27491;SDS011;14927;51.210;6.838;2023-04-03T08:25:02;4.78;;;1.38;;
27491;SDS011;14927;51.210;6.838;2023-04-03T08:27:47;9.20;;;1.45;;
27491;SDS011;14927;51.210;6.838;2023-04-03T08:30:35;5.45;;;1.50;;
27491;SDS011;14927;51.210;6.838;2023-04-03T08:33:23;5.10;;;1.10;;
27491;SDS011;14927;51.210;6.838;2023-04-03T08:36:15;5.88;;;2.00;;
27491;SDS011;14927;51.210;6.838;2023-04-03T08:39:04;4.22;;;1.52;;
27491;SDS011;14927;51.210;6.838;2023-04-03T08:41:50;4.38;;;1.67;;
27491;SDS011;14927;51.210;6.838;2023-04-03T08:44:39;6.68;;;1.58;;
27491;SDS011;14927;51.210;6.838;2023-04-03T08:47:52;2.92;;;1.10;;
27491;SDS011;14927;51.210;6.838;2023-04-03T08:50:56;2.63;;;0.93;;
27491;SDS011;14927;51.210;6.838;2023-04-03T08:53:54;5.68;;;0.93;;
27491;SDS011;14927;51.210;6.838;2023-04-03T08:56:46;3.00;;;1.10;;
27491;SDS011;14927;51.210;6.838;2023-04-03T08:59:32;4.03;;;0.85;;
27491;SDS011;14927;51.210;6.838;2023-04-03T09:02:33;4.53;;;1.75;;
27491;SDS011;14927;51.210;6.838;2023-04-03T09:08:28;4.22;;;1.10;;
27491;SDS011;14927;51.210;6.838;2023-04-03T09:11:25;3.70;;;1.45;;
27491;SDS011;14927;51.210;6.838;2023-04-03T09:14:32;4.07;;;0.90;;
27491;SDS011;14927;51.210;6.838;2023-04-03T09:21:04;3.28;;;0.98;;
27491;SDS011;14927;51.210;6.838;2023-04-03T09:23:52;4.22;;;1.30;;
27491;SDS011;14927;51.210;6.838;2023-04-03T09:27:04;12.63;;;1.48;;
27491;SDS011;14927;51.210;6.838;2023-04-03T09:29:55;3.85;;;1.35;;
27491;SDS011;14927;51.210;6.838;2023-04-03T09:32:43;5.15;;;1.23;;
27491;SDS011;14927;51.210;6.838;2023-04-03T09:35:34;3.17;;;1.08;;
27491;SDS011;14927;51.210;6.838;2023-04-03T09:38:21;3.47;;;1.13;;
27491;SDS011;14927;51.210;6.838;2023-04-03T09:41:12;3.10;;;1.35;;
27491;SDS011;14927;51.210;6.838;2023-04-03T09:44:01;6.28;;;1.60;;
27491;SDS011;14927;51.210;6.838;2023-04-03T09:46:46;5.60;;;1.30;;
27491;SDS011;14927;51.210;6.838;2023-04-03T09:49:31;4.28;;;1.15;;
27491;SDS011;14927;51.210;6.838;2023-04-03T09:52:23;5.47;;;1.33;;
27491;SDS011;14927;51.210;6.838;2023-04-03T09:58:05;2.95;;;0.95;;
27491;SDS011;14927;51.210;6.838;2023-04-03T10:01:25;3.65;;;1.02;;
27491;SDS011;14927;51.210;6.838;2023-04-03T10:04:20;3.05;;;1.58;;
27491;SDS011;14927;51.210;6.838;2023-04-03T10:13:09;3.10;;;1.05;;
27491;SDS011;14927;51.210;6.838;2023-04-03T10:16:15;3.42;;;1.15;;
27491;SDS011;14927;51.210;6.838;2023-04-03T10:35:16;4.50;;;1.48;;
27491;SDS011;14927;51.210;6.838;2023-04-03T10:44:50;4.53;;;0.80;;
27491;SDS011;14927;51.210;6.838;2023-04-03T10:51:25;4.68;;;1.23;;
27491;SDS011;14927;51.210;6.838;2023-04-03T10:54:27;1.75;;;0.73;;
27491;SDS011;14927;51.210;6.838;2023-04-03T10:57:25;2.50;;;0.90;;
27491;SDS011;14927;51.210;6.838;2023-04-03T11:00:17;2.20;;;0.70;;
27491;SDS011;14927;51.210;6.838;2023-04-03T11:03:33;4.73;;;0.97;;
27491;SDS011;14927;51.210;6.838;2023-04-03T11:06:53;2.38;;;0.75;;
27491;SDS011;14927;51.210;6.838;2023-04-03T11:09:55;2.00;;;0.73;;
27491;SDS011;14927;51.210;6.838;2023-04-03T11:12:48;1.58;;;0.70;;
27491;SDS011;14927;51.210;6.838;2023-04-03T11:15:46;2.08;;;0.50;;
27491;SDS011;14927;51.210;6.838;2023-04-03T11:21:33;3.35;;;0.70;;
27491;SDS011;14927;51.210;6.838;2023-04-03T11:24:59;1.45;;;0.70;;
27491;SDS011;14927;51.210;6.838;2023-04-03T11:27:57;1.95;;;0.50;;
27491;SDS011;14927;51.210;6.838;2023-04-03T11:31:02;2.80;;;0.90;;
27491;SDS011;14927;51.210;6.838;2023-04-03T11:40:33;2.55;;;0.60;;
27491;SDS011;14927;51.210;6.838;2023-04-03T11:43:22;1.33;;;0.40;;
27491;SDS011;14927;51.210;6.838;2023-04-03T11:46:10;0.95;;;0.50;;
27491;SDS011;14927;51.210;6.838;2023-04-03T11:48:55;4.35;;;0.80;;
27491;SDS011;14927;51.210;6.838;2023-04-03T11:51:40;2.15;;;0.65;;
27491;SDS011;14927;51.210;6.838;2023-04-03T11:54:46;1.83;;;0.70;;
27491;SDS011;14927;51.210;6.838;2023-04-03T11:58:12;1.50;;;0.45;;
27491;SDS011;14927;51.210;6.838;2023-04-03T12:01:10;1.80;;;0.60;;
27491;SDS011;14927;51.210;6.838;2023-04-03T12:04:31;1.98;;;0.60;;
27491;SDS011;14927;51.210;6.838;2023-04-03T12:07:17;1.52;;;0.40;;
27491;SDS011;14927;51.210;6.838;2023-04-03T12:10:13;2.17;;;0.57;;
27491;SDS011;14927;51.210;6.838;2023-04-03T12:13:00;1.48;;;0.80;;
27491;SDS011;14927;51.210;6.838;2023-04-03T12:15:48;1.60;;;0.70;;
27491;SDS011;14927;51.210;6.838;2023-04-03T12:24:45;1.38;;;0.55;;
27491;SDS011;14927;51.210;6.838;2023-04-03T12:27:40;1.52;;;0.50;;
27491;SDS011;14927;51.210;6.838;2023-04-03T12:30:27;0.80;;;0.60;;
27491;SDS011;14927;51.210;6.838;2023-04-03T12:45:50;2.88;;;0.70;;
27491;SDS011;14927;51.210;6.838;2023-04-03T12:48:57;1.27;;;0.80;;
27491;SDS011;14927;51.210;6.838;2023-04-03T12:51:44;2.17;;;0.70;;
27491;SDS011;14927;51.210;6.838;2023-04-03T12:54:37;1.98;;;0.73;;
27491;SDS011;14927;51.210;6.838;2023-04-03T12:57:26;1.63;;;0.60;;
27491;SDS011;14927;51.210;6.838;2023-04-03T13:00:18;3.55;;;0.70;;
27491;SDS011;14927;51.210;6.838;2023-04-03T13:03:06;2.63;;;0.73;;
27491;SDS011;14927;51.210;6.838;2023-04-03T13:06:05;7.30;;;4.65;;
27491;SDS011;14927;51.210;6.838;2023-04-03T13:11:43;2.63;;;0.70;;
27491;SDS011;14927;51.210;6.838;2023-04-03T13:14:29;1.17;;;0.73;;
27491;SDS011;14927;51.210;6.838;2023-04-03T13:17:15;2.38;;;0.68;;
27491;SDS011;14927;51.210;6.838;2023-04-03T13:20:14;3.90;;;1.17;;
27491;SDS011;14927;51.210;6.838;2023-04-03T13:23:08;4.80;;;0.93;;
27491;SDS011;14927;51.210;6.838;2023-04-03T13:26:02;1.90;;;0.60;;
27491;SDS011;14927;51.210;6.838;2023-04-03T13:28:48;1.20;;;0.70;;
27491;SDS011;14927;51.210;6.838;2023-04-03T13:31:35;1.67;;;0.90;;
27491;SDS011;14927;51.210;6.838;2023-04-03T13:34:24;3.08;;;1.13;;
27491;SDS011;14927;51.210;6.838;2023-04-03T13:37:28;1.90;;;1.00;;
27491;SDS011;14927;51.210;6.838;2023-04-03T13:40:15;1.33;;;0.60;;
27491;SDS011;14927;51.210;6.838;2023-04-03T13:43:03;1.73;;;0.80;;
27491;SDS011;14927;51.210;6.838;2023-04-03T13:46:04;1.33;;;0.80;;
27491;SDS011;14927;51.210;6.838;2023-04-03T13:48:56;4.00;;;0.70;;
27491;SDS011;14927;51.210;6.838;2023-04-03T13:52:17;12.98;;;0.80;;
27491;SDS011;14927;51.210;6.838;2023-04-03T13:55:25;2.42;;;0.95;;
27491;SDS011;14927;51.210;6.838;2023-04-03T14:01:17;2.08;;;0.88;;
27491;SDS011;14927;51.210;6.838;2023-04-03T14:04:12;2.47;;;0.75;;
27491;SDS011;14927;51.210;6.838;2023-04-03T14:07:09;2.65;;;0.80;;
27491;SDS011;14927;51.210;6.838;2023-04-03T14:09:56;1.25;;;0.70;;
27491;SDS011;14927;51.210;6.838;2023-04-03T14:12:41;1.48;;;0.77;;
27491;SDS011;14927;51.210;6.838;2023-04-03T14:15:27;2.45;;;0.75;;
27491;SDS011;14927;51.210;6.838;2023-04-03T14:18:16;2.17;;;0.63;;
27491;SDS011;14927;51.210;6.838;2023-04-03T14:21:03;2.40;;;0.88;;
27491;SDS011;14927;51.210;6.838;2023-04-03T14:23:48;2.45;;;0.90;;
27491;SDS011;14927;51.210;6.838;2023-04-03T14:26:34;2.05;;;0.82;;
27491;SDS011;14927;51.210;6.838;2023-04-03T14:29:22;5.40;;;0.93;;
27491;SDS011;14927;51.210;6.838;2023-04-03T14:32:06;1.05;;;0.60;;
27491;SDS011;14927;51.210;6.838;2023-04-03T14:34:54;1.17;;;0.50;;
27491;SDS011;14927;51.210;6.838;2023-04-03T14:37:42;6.20;;;1.13;;
27491;SDS011;14927;51.210;6.838;2023-04-03T14:40:27;2.90;;;0.98;;
27491;SDS011;14927;51.210;6.838;2023-04-03T14:43:15;2.25;;;1.00;;
27491;SDS011;14927;51.210;6.838;2023-04-03T14:46:01;2.13;;;0.73;;
27491;SDS011;14927;51.210;6.838;2023-04-03T14:48:47;2.50;;;0.90;;
27491;SDS011;14927;51.210;6.838;2023-04-03T14:51:32;4.63;;;1.35;;
27491;SDS011;14927;51.210;6.838;2023-04-03T14:54:22;3.22;;;0.80;;
27491;SDS011;14927;51.210;6.838;2023-04-03T14:57:12;2.80;;;0.88;;
27491;SDS011;14927;51.210;6.838;2023-04-03T14:59:59;1.45;;;0.80;;
27491;SDS011;14927;51.210;6.838;2023-04-03T15:02:45;1.70;;;0.90;;
27491;SDS011;14927;51.210;6.838;2023-04-03T15:05:31;6.25;;;0.80;;
27491;SDS011;14927;51.210;6.838;2023-04-03T15:08:23;0.90;;;0.70;;
27491;SDS011;14927;51.210;6.838;2023-04-03T15:11:13;4.63;;;1.38;;
27491;SDS011;14927;51.210;6.838;2023-04-03T15:13:59;2.10;;;0.85;;
27491;SDS011;14927;51.210;6.838;2023-04-03T15:16:44;5.68;;;1.10;;
27491;SDS011;14927;51.210;6.838;2023-04-03T15:19:30;2.45;;;0.77;;
27491;SDS011;14927;51.210;6.838;2023-04-03T15:22:22;5.60;;;1.10;;
27491;SDS011;14927;51.210;6.838;2023-04-03T15:25:07;2.67;;;1.00;;
27491;SDS011;14927;51.210;6.838;2023-04-03T15:27:54;1.55;;;0.90;;
27491;SDS011;14927;51.210;6.838;2023-04-03T15:30:40;4.65;;;1.00;;
27491;SDS011;14927;51.210;6.838;2023-04-03T15:33:27;1.60;;;0.82;;
27491;SDS011;14927;51.210;6.838;2023-04-03T15:36:11;1.90;;;0.80;;
27491;SDS011;14927;51.210;6.838;2023-04-03T15:38:56;2.33;;;0.90;;
27491;SDS011;14927;51.210;6.838;2023-04-03T15:41:41;2.35;;;0.90;;
27491;SDS011;14927;51.210;6.838;2023-04-03T15:44:26;1.80;;;0.82;;
27491;SDS011;14927;51.210;6.838;2023-04-03T15:47:10;3.05;;;0.95;;
27491;SDS011;14927;51.210;6.838;2023-04-03T15:49:55;2.55;;;0.90;;
27491;SDS011;14927;51.210;6.838;2023-04-03T15:52:40;2.30;;;0.70;;
27491;SDS011;14927;51.210;6.838;2023-04-03T15:55:29;1.67;;;0.90;;
27491;SDS011;14927;51.210;6.838;2023-04-03T15:58:16;2.33;;;0.85;;
27491;SDS011;14927;51.210;6.838;2023-04-03T16:01:01;5.18;;;0.98;;
27491;SDS011;14927;51.210;6.838;2023-04-03T16:03:47;2.00;;;0.82;;
27491;SDS011;14927;51.210;6.838;2023-04-03T16:06:33;2.38;;;0.90;;
27491;SDS011;14927;51.210;6.838;2023-04-03T16:09:24;2.90;;;1.08;;
27491;SDS011;14927;51.210;6.838;2023-04-03T16:12:10;4.45;;;0.93;;
27491;SDS011;14927;51.210;6.838;2023-04-03T16:14:58;4.03;;;1.10;;
27491;SDS011;14927;51.210;6.838;2023-04-03T16:17:43;2.10;;;0.93;;
27491;SDS011;14927;51.210;6.838;2023-04-03T16:20:28;3.30;;;0.95;;
27491;SDS011;14927;51.210;6.838;2023-04-03T16:23:14;3.53;;;0.75;;
27491;SDS011;14927;51.210;6.838;2023-04-03T16:26:02;4.30;;;0.95;;
27491;SDS011;14927;51.210;6.838;2023-04-03T16:28:48;2.45;;;0.98;;
27491;SDS011;14927;51.210;6.838;2023-04-03T16:31:35;5.90;;;1.23;;
27491;SDS011;14927;51.210;6.838;2023-04-03T16:34:22;3.53;;;1.00;;
27491;SDS011;14927;51.210;6.838;2023-04-03T16:37:09;2.85;;;1.00;;
27491;SDS011;14927;51.210;6.838;2023-04-03T16:40:01;1.45;;;0.90;;
27491;SDS011;14927;51.210;6.838;2023-04-03T16:42:49;3.95;;;0.80;;
27491;SDS011;14927;51.210;6.838;2023-04-03T16:45:34;3.13;;;1.00;;
27491;SDS011;14927;51.210;6.838;2023-04-03T16:48:19;3.00;;;0.82;;
27491;SDS011;14927;51.210;6.838;2023-04-03T16:51:04;2.92;;;1.25;;
27491;SDS011;14927;51.210;6.838;2023-04-03T16:53:49;11.18;;;1.33;;
27491;SDS011;14927;51.210;6.838;2023-04-03T16:56:33;3.38;;;0.90;;
27491;SDS011;14927;51.210;6.838;2023-04-03T16:59:18;2.22;;;0.80;;
27491;SDS011;14927;51.210;6.838;2023-04-03T17:02:03;1.40;;;0.80;;
27491;SDS011;14927;51.210;6.838;2023-04-03T17:04:49;7.18;;;1.20;;
27491;SDS011;14927;51.210;6.838;2023-04-03T17:07:38;2.80;;;1.10;;
27491;SDS011;14927;51.210;6.838;2023-04-03T17:10:23;2.72;;;0.90;;
27491;SDS011;14927;51.210;6.838;2023-04-03T17:13:10;2.90;;;1.00;;
27491;SDS011;14927;51.210;6.838;2023-04-03T17:16:02;2.88;;;0.90;;
27491;SDS011;14927;51.210;6.838;2023-04-03T17:18:50;4.38;;;0.90;;
27491;SDS011;14927;51.210;6.838;2023-04-03T17:21:37;2.05;;;0.95;;
27491;SDS011;14927;51.210;6.838;2023-04-03T17:24:22;1.95;;;1.00;;
27491;SDS011;14927;51.210;6.838;2023-04-03T17:27:07;2.08;;;0.93;;
27491;SDS011;14927;51.210;6.838;2023-04-03T17:29:52;3.42;;;1.17;;
27491;SDS011;14927;51.210;6.838;2023-04-03T17:32:37;3.75;;;1.10;;
27491;SDS011;14927;51.210;6.838;2023-04-03T17:35:22;4.78;;;1.83;;
27491;SDS011;14927;51.210;6.838;2023-04-03T17:38:07;2.88;;;1.20;;
27491;SDS011;14927;51.210;6.838;2023-04-03T17:40:51;4.47;;;1.00;;
27491;SDS011;14927;51.210;6.838;2023-04-03T17:43:41;3.42;;;1.20;;
27491;SDS011;14927;51.210;6.838;2023-04-03T17:46:26;7.82;;;1.30;;
27491;SDS011;14927;51.210;6.838;2023-04-03T17:49:12;3.00;;;1.30;;
27491;SDS011;14927;51.210;6.838;2023-04-03T17:51:58;2.95;;;1.27;;
27491;SDS011;14927;51.210;6.838;2023-04-03T17:54:43;3.70;;;1.00;;
27491;SDS011;14927;51.210;6.838;2023-04-03T18:05:36;4.82;;;1.17;;
27491;SDS011;14927;51.210;6.838;2023-04-03T18:08:25;5.93;;;1.23;;
27491;SDS011;14927;51.210;6.838;2023-04-03T18:11:11;5.53;;;1.42;;
27491;SDS011;14927;51.210;6.838;2023-04-03T18:13:57;3.47;;;1.13;;
27491;SDS011;14927;51.210;6.838;2023-04-03T18:16:44;3.20;;;1.40;;
27491;SDS011;14927;51.210;6.838;2023-04-03T18:19:33;2.75;;;1.10;;
27491;SDS011;14927;51.210;6.838;2023-04-03T18:22:19;4.18;;;0.93;;